createdAt,value
2017-02-17T00:00:57.924Z,22.2
2017-02-17T00:03:30.464Z,22.2
2017-02-17T00:06:03.008Z,22.3
2017-02-17T00:08:36.007Z,22.2
2017-02-17T00:11:08.582Z,22.2
2017-02-17T00:13:41.257Z,22.2
2017-02-17T00:16:14.681Z,22.3
2017-02-17T00:18:47.238Z,22.2
2017-02-17T00:21:20.442Z,22.2
2017-02-17T00:23:53.008Z,22.2
2017-02-17T00:26:25.746Z,22.2
2017-02-17T00:28:59.339Z,22.2
2017-02-17T00:31:32.322Z,22.2
2017-02-17T00:34:05.319Z,22.2
2017-02-17T00:36:37.877Z,22.2
2017-02-17T00:39:10.438Z,22.2
2017-02-17T00:41:43.418Z,22.2
2017-02-17T00:44:15.965Z,22.2
2017-02-17T00:46:49.559Z,22.1
2017-02-17T00:49:22.565Z,22.2
2017-02-17T00:51:55.135Z,22.3
2017-02-17T00:54:27.712Z,22.3
2017-02-17T00:57:00.249Z,22.4
2017-02-17T00:59:33.663Z,22.4
2017-02-17T01:02:06.220Z,22.4
2017-02-17T01:04:39.156Z,22.4
2017-02-17T01:07:11.881Z,22.4
2017-02-17T01:09:44.443Z,22.4
2017-02-17T01:12:17.438Z,22.4
2017-02-17T01:14:50.051Z,22.4
2017-02-17T01:17:22.583Z,22.4
2017-02-17T01:19:55.118Z,22.4
2017-02-17T01:22:27.895Z,22.4
2017-02-17T01:25:01.298Z,22.4
2017-02-17T01:27:34.798Z,22.3
2017-02-17T01:30:07.358Z,22.3
2017-02-17T01:32:40.331Z,22.3
2017-02-17T01:35:12.926Z,22.3
2017-02-17T01:37:45.522Z,22.3
2017-02-17T01:40:18.052Z,22.3
2017-02-17T01:42:51.022Z,22.3
2017-02-17T01:45:23.555Z,22.3
2017-02-17T01:47:56.130Z,22.3
2017-02-17T01:50:28.686Z,22.3
2017-02-17T01:53:01.666Z,22.3
2017-02-17T01:55:34.290Z,22.4
2017-02-17T01:58:07.029Z,22.3
2017-02-17T02:00:39.575Z,22.4
2017-02-17T02:03:13.407Z,22.3
2017-02-17T02:05:45.947Z,22.4
2017-02-17T02:08:18.680Z,22.4
2017-02-17T02:10:51.227Z,22.3
2017-02-17T02:13:24.201Z,22.4
2017-02-17T02:15:57.038Z,22.4
2017-02-17T02:18:29.566Z,22.4
2017-02-17T02:21:02.153Z,22.4
2017-02-17T02:23:35.523Z,22.4
2017-02-17T02:26:08.297Z,22.4
2017-02-17T02:28:40.847Z,22.4
2017-02-17T02:31:14.686Z,22.3
2017-02-17T02:33:47.236Z,22.4
2017-02-17T02:36:20.245Z,22.3
2017-02-17T02:38:53.210Z,22.3
2017-02-17T02:41:25.970Z,22.4
2017-02-17T02:43:58.486Z,22.3
2017-02-17T02:46:31.880Z,22.3
2017-02-17T02:49:04.402Z,22.3
2017-02-17T02:51:36.930Z,22.3
2017-02-17T02:54:09.501Z,22.3
2017-02-17T02:56:42.902Z,22.3
2017-02-17T02:59:15.464Z,22.3
2017-02-17T03:01:48.028Z,22.3
2017-02-17T03:04:20.549Z,22.3
2017-02-17T03:06:53.092Z,22.3
2017-02-17T03:09:25.613Z,22.3
2017-02-17T03:11:58.157Z,22.3
2017-02-17T03:14:30.673Z,22.3
2017-02-17T03:17:03.213Z,22.3
2017-02-17T03:19:35.742Z,22.3
2017-02-17T03:22:08.690Z,22.3
2017-02-17T03:24:41.225Z,22.3
2017-02-17T03:27:13.762Z,22.3
2017-02-17T03:29:46.713Z,22.3
2017-02-17T03:32:19.258Z,22.3
2017-02-17T03:34:51.811Z,22.3
2017-02-17T03:37:24.355Z,22.3
2017-02-17T03:39:57.353Z,22.3
2017-02-17T03:42:29.889Z,22.3
2017-02-17T03:45:03.268Z,22.3
2017-02-17T03:47:35.818Z,22.3
2017-02-17T03:50:08.779Z,22.3
2017-02-17T03:52:41.760Z,22.3
2017-02-17T03:55:14.312Z,22.3
2017-02-17T03:57:46.846Z,22.3
2017-02-17T04:00:19.788Z,22.3
2017-02-17T04:02:52.330Z,22.3
2017-02-17T04:05:25.262Z,22.3
2017-02-17T04:07:57.843Z,22.3
2017-02-17T04:10:30.791Z,22.3
2017-02-17T04:13:03.325Z,22.3
2017-02-17T04:15:35.874Z,22.3
2017-02-17T04:18:08.417Z,22.3
2017-02-17T04:20:40.960Z,22.3
2017-02-17T04:23:14.355Z,22.3
2017-02-17T04:25:47.303Z,22.3
2017-02-17T04:28:19.858Z,22.3
2017-02-17T04:30:52.387Z,22.3
2017-02-17T04:33:24.910Z,22.3
2017-02-17T04:35:57.867Z,22.3
2017-02-17T04:38:30.814Z,22.3
2017-02-17T04:41:03.344Z,22.3
2017-02-17T04:43:35.895Z,22.3
2017-02-17T04:46:08.398Z,22.3
2017-02-17T04:48:40.931Z,22.3
2017-02-17T04:51:13.882Z,22.3
2017-02-17T04:53:46.840Z,22.3
2017-02-17T04:56:19.366Z,22.3
2017-02-17T04:58:51.904Z,22.3
2017-02-17T05:01:25.301Z,22.3
2017-02-17T05:03:58.284Z,22.3
2017-02-17T05:06:30.854Z,22.3
2017-02-17T05:09:03.373Z,22.3
2017-02-17T05:11:36.783Z,22.3
2017-02-17T05:14:09.329Z,22.3
2017-02-17T05:16:42.263Z,22.3
2017-02-17T05:19:14.800Z,22.3
2017-02-17T05:21:47.336Z,22.3
2017-02-17T05:24:19.873Z,22.3
2017-02-17T05:26:52.427Z,22.3
2017-02-17T05:29:24.960Z,22.3
2017-02-17T05:31:57.499Z,22.3
2017-02-17T05:34:30.240Z,22.3
2017-02-17T05:37:03.165Z,22.3
2017-02-17T05:39:35.720Z,22.3
2017-02-17T05:42:08.672Z,22.3
2017-02-17T05:44:41.654Z,22.3
2017-02-17T05:47:14.216Z,22.3
2017-02-17T05:49:47.178Z,22.3
2017-02-17T05:52:19.698Z,22.3
2017-02-17T05:54:52.684Z,22.2
2017-02-17T05:57:25.198Z,22.3
2017-02-17T05:59:57.739Z,22.3
2017-02-17T06:02:30.265Z,22.3
2017-02-17T06:05:03.236Z,22.3
2017-02-17T06:07:36.176Z,22.3
2017-02-17T06:10:08.734Z,22.3
2017-02-17T06:12:41.692Z,22.3
2017-02-17T06:15:14.225Z,22.3
2017-02-17T06:17:46.754Z,22.3
2017-02-17T06:20:19.309Z,22.3
2017-02-17T06:22:51.852Z,22.3
2017-02-17T06:25:24.855Z,22.3
2017-02-17T06:27:57.391Z,22.3
2017-02-17T06:30:29.924Z,22.3
2017-02-17T06:33:02.484Z,22.3
2017-02-17T06:35:35.038Z,22.3
2017-02-17T06:38:08.206Z,22.3
2017-02-17T06:40:40.743Z,22.3
2017-02-17T06:43:13.377Z,22.3
2017-02-17T06:45:45.893Z,22.3
2017-02-17T06:48:18.479Z,22.3
2017-02-17T06:50:51.015Z,22.3
2017-02-17T06:53:23.975Z,22.3
2017-02-17T06:55:56.506Z,22.3
2017-02-17T06:58:29.044Z,22.3
2017-02-17T07:01:02.000Z,22.3
2017-02-17T07:03:34.966Z,22.3
2017-02-17T07:06:07.527Z,22.3
2017-02-17T07:08:40.897Z,22.3
2017-02-17T07:11:13.849Z,22.3
2017-02-17T07:13:46.388Z,22.3
2017-02-17T07:16:18.902Z,22.2
2017-02-17T07:18:51.439Z,22.3
2017-02-17T07:21:24.424Z,22.3
2017-02-17T07:23:57.174Z,22.3
2017-02-17T07:26:30.587Z,22.3
2017-02-17T07:29:03.120Z,22.2
2017-02-17T07:31:36.133Z,22.3
2017-02-17T07:34:08.673Z,22.2
2017-02-17T07:36:41.208Z,22.2
2017-02-17T07:39:15.017Z,22.2
2017-02-17T07:41:47.562Z,22.2
2017-02-17T07:44:20.103Z,22.2
2017-02-17T07:46:52.663Z,22.3
2017-02-17T07:49:25.220Z,22.2
2017-02-17T07:51:58.205Z,22.3
2017-02-17T07:54:31.634Z,22.3
2017-02-17T07:57:04.589Z,22.3
2017-02-17T07:59:37.585Z,22.2
2017-02-17T08:02:10.116Z,22.2
2017-02-17T08:04:43.067Z,22.3
2017-02-17T08:07:15.606Z,22.3
2017-02-17T08:09:48.137Z,22.3
2017-02-17T08:12:20.701Z,22.2
2017-02-17T08:14:53.280Z,22.2
2017-02-17T08:17:25.876Z,22.1
2017-02-17T08:19:58.478Z,22
2017-02-17T08:22:31.057Z,22
2017-02-17T08:25:04.537Z,21.9
2017-02-17T08:27:38.033Z,22
2017-02-17T08:30:10.617Z,22.1
2017-02-17T08:32:43.953Z,22.1
2017-02-17T08:35:16.961Z,22.1
2017-02-17T08:37:49.962Z,22.1
2017-02-17T08:40:22.628Z,22.1
2017-02-17T08:42:55.614Z,22.1
2017-02-17T08:45:28.643Z,22.1
2017-02-17T08:48:01.279Z,22.2
2017-02-17T08:50:34.303Z,22.2
2017-02-17T08:53:06.873Z,22.2
2017-02-17T08:55:39.461Z,22.2
2017-02-17T08:58:12.425Z,22.2
2017-02-17T09:00:45.057Z,22.2
2017-02-17T09:03:17.953Z,22.3
2017-02-17T09:05:50.677Z,22.3
2017-02-17T09:08:23.295Z,22.3
2017-02-17T09:10:55.875Z,22.2
2017-02-17T09:13:28.451Z,22.2
2017-02-17T09:16:01.222Z,22.1
2017-02-17T09:18:33.796Z,22.2
2017-02-17T09:21:06.434Z,22.2
2017-02-17T09:23:39.416Z,22
2017-02-17T09:26:11.994Z,21.7
2017-02-17T09:28:44.527Z,21.6
2017-02-17T09:31:17.690Z,21.7
2017-02-17T09:33:50.265Z,21.7
2017-02-17T09:36:23.060Z,21.8
2017-02-17T09:38:55.624Z,21.9
2017-02-17T09:41:29.048Z,22
2017-02-17T09:44:01.658Z,22
2017-02-17T09:46:34.227Z,22.1
2017-02-17T09:49:07.108Z,22.1
2017-02-17T09:51:39.644Z,22.1
2017-02-17T09:54:12.301Z,22.2
2017-02-17T09:56:44.870Z,22.2
2017-02-17T09:59:17.690Z,22.2
2017-02-17T10:01:50.417Z,22.2
2017-02-17T10:04:23.147Z,22.2
2017-02-17T10:06:55.737Z,22.2
2017-02-17T10:09:28.300Z,22.2
2017-02-17T10:12:00.950Z,22.2
2017-02-17T10:14:34.390Z,22.2
2017-02-17T10:17:06.998Z,22.2
2017-02-17T10:19:39.991Z,22.3
2017-02-17T10:22:13.132Z,22.3
2017-02-17T10:24:45.696Z,22.3
2017-02-17T10:27:18.947Z,22.3
2017-02-17T10:29:51.946Z,22.3
2017-02-17T10:32:24.931Z,22.3
2017-02-17T10:34:57.495Z,22.3
2017-02-17T10:37:30.555Z,22.3
2017-02-17T10:40:03.124Z,22.3
2017-02-17T10:42:35.724Z,22.3
2017-02-17T10:45:08.706Z,22.4
2017-02-17T10:47:41.990Z,22.3
2017-02-17T10:50:15.067Z,22.3
2017-02-17T10:52:48.550Z,22.4
2017-02-17T10:55:21.125Z,22.4
2017-02-17T10:57:53.709Z,22.4
2017-02-17T11:00:26.726Z,22.4
2017-02-17T11:02:59.326Z,22.4
2017-02-17T11:05:31.991Z,22.4
2017-02-17T11:08:04.568Z,22.4
2017-02-17T11:10:37.307Z,22.4
2017-02-17T11:13:09.907Z,22.4
2017-02-17T11:15:42.731Z,22.4
2017-02-17T11:18:15.307Z,22.4
2017-02-17T11:20:48.020Z,22.4
2017-02-17T11:23:21.616Z,22.4
2017-02-17T11:25:54.214Z,22.4
2017-02-17T11:28:27.235Z,22.3
2017-02-17T11:30:59.968Z,22.3
2017-02-17T11:33:32.983Z,22.3
2017-02-17T11:36:05.566Z,22.3
2017-02-17T11:38:38.443Z,22.3
2017-02-17T11:41:11.169Z,22.4
2017-02-17T11:43:43.907Z,22.4
2017-02-17T11:46:16.545Z,22.4
2017-02-17T11:48:49.075Z,22.4
2017-02-17T11:51:21.808Z,22.4
2017-02-17T11:53:54.544Z,22.4
2017-02-17T11:56:27.080Z,22.4
2017-02-17T11:58:59.626Z,22.4
2017-02-17T12:01:32.191Z,22.4
2017-02-17T12:04:05.138Z,22.4
2017-02-17T12:06:37.686Z,22.4
2017-02-17T12:09:10.468Z,22.4
2017-02-17T12:11:43.010Z,22.4
2017-02-17T12:14:15.575Z,22.4
2017-02-17T12:16:48.540Z,22.4
2017-02-17T12:19:21.610Z,22.4
2017-02-17T12:21:54.168Z,22.5
2017-02-17T12:24:26.712Z,22.4
2017-02-17T12:27:00.098Z,22.4
2017-02-17T12:29:33.080Z,22.4
2017-02-17T12:32:06.114Z,22.3
2017-02-17T12:34:39.100Z,22.3
2017-02-17T12:37:11.665Z,22.1
2017-02-17T12:39:44.686Z,22
2017-02-17T12:42:17.872Z,21.9
2017-02-17T12:44:51.034Z,21.8
2017-02-17T12:47:23.600Z,21.7
2017-02-17T12:49:56.198Z,21.7
2017-02-17T12:52:29.178Z,21.7
2017-02-17T12:55:01.748Z,21.7
2017-02-17T12:57:35.168Z,21.6
2017-02-17T13:00:07.738Z,21.6
2017-02-17T13:02:40.299Z,21.6
2017-02-17T13:05:12.871Z,21.5
2017-02-17T13:07:45.839Z,21.5
2017-02-17T13:10:50.686Z,21.5
2017-02-17T13:13:23.257Z,21.5
2017-02-17T13:15:56.259Z,21.4
2017-02-17T13:18:29.413Z,21.4
2017-02-17T13:21:02.429Z,21.4
2017-02-17T13:23:34.979Z,21.3
2017-02-17T13:26:07.540Z,21.3
2017-02-17T13:28:40.101Z,21.3
2017-02-17T13:31:13.495Z,21.2
2017-02-17T13:33:46.674Z,21.2
2017-02-17T13:36:19.241Z,21.1
2017-02-17T13:38:52.741Z,21.1
2017-02-17T13:41:25.985Z,21.1
2017-02-17T13:43:59.204Z,21.1
2017-02-17T13:46:32.495Z,21.1
2017-02-17T13:49:05.178Z,21.1
2017-02-17T13:51:37.767Z,21.2
2017-02-17T13:54:10.317Z,21.4
2017-02-17T13:56:42.862Z,21.5
2017-02-17T13:59:16.172Z,21.6
2017-02-17T14:01:49.205Z,21.7
2017-02-17T14:04:21.807Z,21.7
2017-02-17T14:06:54.343Z,21.8
2017-02-17T14:09:26.908Z,21.8
2017-02-17T14:11:59.499Z,21.9
2017-02-17T14:14:32.053Z,21.9
2017-02-17T14:17:04.632Z,22
2017-02-17T14:19:37.209Z,22
2017-02-17T14:22:10.201Z,22
2017-02-17T14:24:42.757Z,22
2017-02-17T14:27:15.349Z,22.1
2017-02-17T14:29:49.194Z,22.1
2017-02-17T14:32:21.761Z,22.1
2017-02-17T14:34:54.752Z,22.2
2017-02-17T14:37:27.326Z,22.2
2017-02-17T14:40:00.338Z,22.2
2017-02-17T14:42:32.944Z,22.2
2017-02-17T14:45:05.802Z,22.1
2017-02-17T14:47:38.502Z,22
2017-02-17T14:50:11.181Z,22
2017-02-17T14:52:45.150Z,21.9
2017-02-17T14:55:17.705Z,21.8
2017-02-17T14:57:50.292Z,21.8
2017-02-17T15:00:23.356Z,21.7
2017-02-17T15:02:56.369Z,21.7
2017-02-17T15:05:29.012Z,21.7
2017-02-17T15:08:01.725Z,21.6
2017-02-17T15:10:34.717Z,21.7
2017-02-17T15:13:07.302Z,21.6
2017-02-17T15:15:39.840Z,21.6
2017-02-17T15:18:12.494Z,21.6
2017-02-17T15:20:45.044Z,21.5
2017-02-17T15:23:17.581Z,21.4
2017-02-17T15:25:50.123Z,21.4
2017-02-17T15:28:22.853Z,21.4
2017-02-17T15:30:55.396Z,21.3
2017-02-17T15:33:27.929Z,21.3
2017-02-17T15:36:00.887Z,21.3
2017-02-17T15:38:33.706Z,21.3
2017-02-17T15:41:07.108Z,21.3
2017-02-17T15:43:39.655Z,21.3
2017-02-17T15:46:12.236Z,21.2
2017-02-17T15:48:45.239Z,21.3
2017-02-17T15:51:17.835Z,21.3
2017-02-17T15:53:50.799Z,21.5
2017-02-17T15:56:23.344Z,21.6
2017-02-17T15:58:55.869Z,21.7
2017-02-17T16:01:28.873Z,21.8
2017-02-17T16:04:02.065Z,21.8
2017-02-17T16:06:34.748Z,21.9
2017-02-17T16:09:07.286Z,22
2017-02-17T16:11:39.808Z,22
2017-02-17T16:14:12.327Z,22.1
2017-02-17T16:16:44.868Z,22.1
2017-02-17T16:19:17.402Z,22.1
2017-02-17T16:21:50.365Z,22.1
2017-02-17T16:24:23.098Z,22.2
2017-02-17T16:26:55.660Z,22.2
2017-02-17T16:29:28.206Z,22.2
2017-02-17T16:32:00.764Z,22.2
2017-02-17T16:34:33.823Z,22.2
2017-02-17T16:37:06.347Z,22.2
2017-02-17T16:39:38.885Z,22.2
2017-02-17T16:42:11.423Z,22.2
2017-02-17T16:44:44.381Z,22.3
2017-02-17T16:47:17.297Z,22.4
2017-02-17T16:49:49.835Z,22.4
2017-02-17T16:52:22.365Z,22.4
2017-02-17T16:54:55.321Z,22.5
2017-02-17T16:57:28.313Z,22.5
2017-02-17T17:00:01.405Z,22.5
2017-02-17T17:02:34.797Z,22.5
2017-02-17T17:05:07.324Z,22.6
2017-02-17T17:07:39.838Z,22.5
2017-02-17T17:10:12.389Z,22.5
2017-02-17T17:12:45.374Z,22.5
2017-02-17T17:15:17.917Z,22.5
2017-02-17T17:17:50.812Z,22.5
2017-02-17T17:20:23.368Z,22.4
2017-02-17T17:22:56.510Z,22.4
2017-02-17T17:25:29.083Z,22.5
2017-02-17T17:28:02.044Z,22.5
2017-02-17T17:30:34.818Z,22.4
2017-02-17T17:33:07.763Z,22.5
2017-02-17T17:35:40.294Z,22.5
2017-02-17T17:38:12.814Z,22.5
2017-02-17T17:40:45.375Z,22.5
2017-02-17T17:43:18.355Z,22.5
2017-02-17T17:45:50.896Z,22.4
2017-02-17T17:48:23.439Z,22.5
2017-02-17T17:50:56.028Z,22.5
2017-02-17T17:53:29.326Z,22.5
2017-02-17T17:56:02.411Z,22.5
2017-02-17T17:58:35.403Z,22.5
2017-02-17T18:01:07.955Z,22.5
2017-02-17T18:03:40.960Z,22.5
2017-02-17T18:06:13.532Z,22.5
2017-02-17T18:08:46.499Z,22.5
2017-02-17T18:11:19.454Z,22.4
2017-02-17T18:13:51.988Z,22.5
2017-02-17T18:16:24.533Z,22.5
2017-02-17T18:18:57.384Z,22.5
2017-02-17T18:21:29.952Z,22.5
2017-02-17T18:24:02.908Z,22.3
2017-02-17T18:26:36.054Z,22.4
2017-02-17T18:29:08.594Z,22.5
2017-02-17T18:31:41.131Z,22.5
2017-02-17T18:34:13.686Z,22.4
2017-02-17T18:36:46.213Z,22.4
2017-02-17T18:39:19.182Z,22.5
2017-02-17T18:41:51.721Z,22.4
2017-02-17T18:44:24.283Z,22.4
2017-02-17T18:46:57.258Z,22.4
2017-02-17T18:49:29.807Z,22.4
2017-02-17T18:52:02.414Z,22.4
2017-02-17T18:54:34.978Z,22.4
2017-02-17T18:57:07.917Z,22.5
2017-02-17T18:59:40.487Z,22.5
2017-02-17T19:02:13.442Z,22.5
2017-02-17T19:04:45.989Z,22.5
2017-02-17T19:07:18.583Z,22.5
2017-02-17T19:09:51.134Z,22.6
2017-02-17T19:12:23.688Z,22.5
2017-02-17T19:14:56.233Z,22.5
2017-02-17T19:17:28.772Z,22.5
2017-02-17T19:20:01.742Z,22.5
2017-02-17T19:22:34.697Z,22.5
2017-02-17T19:25:07.248Z,22.5
2017-02-17T19:27:39.788Z,22.5
2017-02-17T19:30:12.323Z,22.5
2017-02-17T19:32:45.066Z,22.5
2017-02-17T19:35:17.588Z,22.5
2017-02-17T19:37:50.135Z,22.5
2017-02-17T19:40:22.688Z,22.5
2017-02-17T19:42:55.642Z,22.5
2017-02-17T19:45:28.490Z,22.5
2017-02-17T19:48:01.489Z,22.5
2017-02-17T19:50:34.015Z,22.5
2017-02-17T19:53:07.025Z,22.5
2017-02-17T19:55:39.552Z,22.5
2017-02-17T19:58:12.095Z,22.5
2017-02-17T20:00:44.615Z,22.5
2017-02-17T20:03:17.602Z,22.5
2017-02-17T20:05:50.180Z,22.4
2017-02-17T20:08:22.764Z,22.5
2017-02-17T20:10:55.758Z,22.5
2017-02-17T20:13:28.330Z,22.5
2017-02-17T20:16:00.944Z,22.5
2017-02-17T20:18:33.939Z,22.5
2017-02-17T20:21:06.505Z,22.5
2017-02-17T20:23:39.044Z,22.5
2017-02-17T20:26:12.033Z,22.5
2017-02-17T20:28:45.017Z,22.5
2017-02-17T20:31:17.578Z,22.5
2017-02-17T20:33:50.173Z,22.5
2017-02-17T20:36:22.753Z,22.5
2017-02-17T20:38:55.330Z,22.5
2017-02-17T20:41:29.651Z,22.5
2017-02-17T20:44:02.224Z,22.5
2017-02-17T20:46:35.209Z,22.5
2017-02-17T20:49:07.807Z,22.5
2017-02-17T20:51:40.369Z,22.5
2017-02-17T20:54:12.972Z,22.5
2017-02-17T20:56:45.533Z,22.5
2017-02-17T20:59:18.095Z,22.5
2017-02-17T21:01:50.661Z,22.5
2017-02-17T21:04:23.199Z,22.5
2017-02-17T21:06:56.157Z,22.5
2017-02-17T21:09:28.706Z,22.4
2017-02-17T21:12:01.270Z,22.5
2017-02-17T21:14:34.221Z,22.5
2017-02-17T21:19:48.854Z,22.5
2017-02-17T21:22:22.943Z,22.5
2017-02-17T21:24:55.771Z,22.5
2017-02-17T21:27:29.407Z,22.6
2017-02-17T21:30:03.044Z,22.6
2017-02-17T21:32:36.790Z,22.6
2017-02-17T21:35:24.717Z,22.6
2017-02-17T21:37:57.382Z,22.6
2017-02-17T21:40:30.223Z,22.6
2017-02-17T21:43:02.845Z,22.6
2017-02-17T21:45:35.485Z,22.6
2017-02-17T21:48:08.541Z,22.6
2017-02-17T21:50:41.618Z,22.6
2017-02-17T21:53:14.934Z,22.6
2017-02-17T21:56:01.633Z,22.6
2017-02-17T21:58:35.136Z,22.6
2017-02-17T22:01:08.005Z,22.6
2017-02-17T22:03:41.010Z,22.6
2017-02-17T22:06:14.250Z,22.5
2017-02-17T22:08:47.922Z,22.6
2017-02-17T22:11:20.636Z,22.5
2017-02-17T22:18:12.030Z,22.5
2017-02-17T22:20:45.858Z,22.5
2017-02-17T22:23:18.496Z,22.5
2017-02-17T22:25:52.411Z,22.5
2017-02-17T22:28:25.504Z,22.5
2017-02-17T22:30:58.151Z,22.5
2017-02-17T22:33:31.204Z,22.5
2017-02-17T22:36:04.308Z,22.5
2017-02-17T22:38:36.966Z,22.5
2017-02-17T22:41:09.606Z,22.5
2017-02-17T22:43:42.272Z,22.4
2017-02-17T22:46:14.898Z,22.5
2017-02-17T22:48:47.550Z,22.4
2017-02-17T22:51:20.198Z,22.4
2017-02-17T22:53:53.250Z,22.4
2017-02-17T22:56:26.331Z,22.4
2017-02-17T22:58:58.959Z,22.4
2017-02-17T23:01:31.807Z,22.4
2017-02-17T23:04:04.467Z,22.4
2017-02-17T23:06:37.090Z,22.4
2017-02-17T23:09:09.728Z,22.4
2017-02-17T23:11:42.362Z,22.4
2017-02-17T23:14:15.838Z,22.4
2017-02-17T23:16:48.853Z,22.4
2017-02-17T23:19:21.482Z,22.4
2017-02-17T23:21:54.100Z,22.4
2017-02-17T23:24:27.160Z,22.4
2017-02-17T23:26:59.803Z,22.4
2017-02-17T23:29:32.876Z,22.4
2017-02-17T23:32:05.547Z,22.3
2017-02-17T23:34:38.611Z,22.3
